Terminal Aerodrome Forecast
Issued by NWS

Home | Current Version | Previous Version | Text Only | Print | Product List | Glossary On
Versions: 1 2 3 4 5 6 7 8 9 10 11 12 13 14 15 16 17 18 19 20 21
000
FTUS43 KDVN 251400 AAB
TAFBRL
TAF AMD
KBRL 251451Z 2515/2612 04013G20KT 3SM -RASN BR BKN008 OVC015
     FM251515 03014G23KT 2SM -SN BR OVC007
     FM251900 02015G24KT P6SM OVC015
     FM252100 02017G27KT P6SM OVC035
     FM260300 36008KT P6SM SCT200=

USA.gov is the U.S. government's official web portal to all federal, state and local government web resources and services.